Tarlton, Ohio
Current Conditions -  °F | °C
As of 9:53 PM on Wednesday 26 Nov 2014 (Local Time) from KLHQ Reporting Station
Broken Clouds Broken Clouds  
Wind Chill:   Ceiling: 3300
Heat Index:   Visibility: 8mi
Dew Point: -3°   Wind: 3mph
Humidity: 79%   Direction: 260°W
Pressure: 30.04"   Gusts: NA
Location:  39.56°N, 82.78°W
Report Text: KLHQ 270253Z AUTO 26003KT 8SM BKN033 00/M03 A3004 RMK AO2 SLP179 T00001033 50000
Loading
Personal Weather Stations






























Interactive Weather Map New forecast layout! Learn more

10-Day Weather Forecast

Advertisements
Track Severe Weather on mobile